Terminal Aerodrome Forecast
Issued by NWS Huntsville, AL

Home | Current Version | Previous Version | Text Only | Print | Product List | Glossary On
Versions: 1 2 3 4 5 6 7 8 9 10 11 12 13 14 15 16 17 18 19 20 21 22 23 24 25 26 27 28 29 30 31 32 33
000
FTUS44 KHUN 211132
TAFMSL
TAF
KMSL 211132Z 2112/2212 07003KT P6SM SCT250
     FM211400 14008KT P6SM SCT250
     FM220000 11004KT P6SM SCT050 OVC100
      TEMPO 2206/2209 P6SM -SHRA OVC050
     FM220900 13012KT P6SM -SHRA OVC025=

USA.gov is the U.S. government's official web portal to all federal, state and local government web resources and services.